sensor_id;sensor_type;location;lat;lon;timestamp;temperature;humidity
38239;DHT22;24035;48.900;9.188;2022-12-18T00:01:21;-9.90;1.00
38239;DHT22;24035;48.900;9.188;2022-12-18T00:03:48;-9.90;1.00
38239;DHT22;24035;48.900;9.188;2022-12-18T00:06:14;-10.10;1.00
38239;DHT22;24035;48.900;9.188;2022-12-18T00:08:41;-10.10;1.00
38239;DHT22;24035;48.900;9.188;2022-12-18T00:11:10;-10.20;1.00
38239;DHT22;24035;48.900;9.188;2022-12-18T00:13:37;-10.20;1.00
38239;DHT22;24035;48.900;9.188;2022-12-18T00:16:07;-10.10;1.00
38239;DHT22;24035;48.900;9.188;2022-12-18T00:18:34;-10.20;1.00
38239;DHT22;24035;48.900;9.188;2022-12-18T00:21:04;-10.20;1.00
38239;DHT22;24035;48.900;9.188;2022-12-18T00:23:32;-10.20;1.00
38239;DHT22;24035;48.900;9.188;2022-12-18T00:26:02;-10.20;1.00
38239;DHT22;24035;48.900;9.188;2022-12-18T00:28:28;-10.20;1.00
38239;DHT22;24035;48.900;9.188;2022-12-18T00:31:05;-10.20;1.00
38239;DHT22;24035;48.900;9.188;2022-12-18T00:33:31;-10.20;1.00
38239;DHT22;24035;48.900;9.188;2022-12-18T00:36:28;-10.20;1.00
38239;DHT22;24035;48.900;9.188;2022-12-18T00:38:55;-10.20;1.00
38239;DHT22;24035;48.900;9.188;2022-12-18T00:41:21;-10.20;1.00
38239;DHT22;24035;48.900;9.188;2022-12-18T00:44:07;-10.30;1.00
38239;DHT22;24035;48.900;9.188;2022-12-18T00:46:34;-10.30;1.00
38239;DHT22;24035;48.900;9.188;2022-12-18T00:49:00;-10.40;1.00
38239;DHT22;24035;48.900;9.188;2022-12-18T00:51:26;-10.30;1.00
38239;DHT22;24035;48.900;9.188;2022-12-18T00:53:52;-10.30;1.00
38239;DHT22;24035;48.900;9.188;2022-12-18T00:56:22;-10.10;99.90
38239;DHT22;24035;48.900;9.188;2022-12-18T00:58:48;-9.80;99.90
38239;DHT22;24035;48.900;9.188;2022-12-18T01:01:14;-9.50;1.00
38239;DHT22;24035;48.900;9.188;2022-12-18T01:03:40;-9.10;1.00
38239;DHT22;24035;48.900;9.188;2022-12-18T01:06:08;-9.00;1.00
38239;DHT22;24035;48.900;9.188;2022-12-18T01:08:34;-8.90;99.90
38239;DHT22;24035;48.900;9.188;2022-12-18T01:11:06;-8.80;99.90
38239;DHT22;24035;48.900;9.188;2022-12-18T01:13:32;-8.70;99.90
38239;DHT22;24035;48.900;9.188;2022-12-18T01:15:58;-8.60;99.90
38239;DHT22;24035;48.900;9.188;2022-12-18T01:18:23;-8.60;99.90
38239;DHT22;24035;48.900;9.188;2022-12-18T01:20:49;-8.60;99.90
38239;DHT22;24035;48.900;9.188;2022-12-18T01:23:15;-8.60;99.90
38239;DHT22;24035;48.900;9.188;2022-12-18T01:25:41;-8.60;99.90
38239;DHT22;24035;48.900;9.188;2022-12-18T01:28:06;-8.70;99.90
38239;DHT22;24035;48.900;9.188;2022-12-18T01:30:32;-8.70;99.90
38239;DHT22;24035;48.900;9.188;2022-12-18T01:32:57;-8.70;99.90
38239;DHT22;24035;48.900;9.188;2022-12-18T01:35:23;-8.70;99.90
38239;DHT22;24035;48.900;9.188;2022-12-18T01:37:49;-8.70;99.90
38239;DHT22;24035;48.900;9.188;2022-12-18T01:40:14;-8.70;99.90
38239;DHT22;24035;48.900;9.188;2022-12-18T01:42:40;-8.70;99.90
38239;DHT22;24035;48.900;9.188;2022-12-18T01:45:22;-8.90;66.30
38239;DHT22;24035;48.900;9.188;2022-12-18T01:47:52;-8.90;1.00
38239;DHT22;24035;48.900;9.188;2022-12-18T01:50:37;-9.00;1.00
38239;DHT22;24035;48.900;9.188;2022-12-18T01:53:11;-9.00;1.00
38239;DHT22;24035;48.900;9.188;2022-12-18T01:55:51;-9.00;1.00
38239;DHT22;24035;48.900;9.188;2022-12-18T01:58:18;-9.00;1.00
38239;DHT22;24035;48.900;9.188;2022-12-18T02:00:44;-9.00;1.00
38239;DHT22;24035;48.900;9.188;2022-12-18T02:03:10;-9.00;1.00
38239;DHT22;24035;48.900;9.188;2022-12-18T02:08:16;-9.00;1.00
38239;DHT22;24035;48.900;9.188;2022-12-18T02:18:49;-8.80;1.00
38239;DHT22;24035;48.900;9.188;2022-12-18T02:21:34;-8.90;1.00
38239;DHT22;24035;48.900;9.188;2022-12-18T02:26:47;-8.80;1.00
38239;DHT22;24035;48.900;9.188;2022-12-18T02:29:39;-8.80;1.00
38239;DHT22;24035;48.900;9.188;2022-12-18T02:32:10;-8.90;1.00
38239;DHT22;24035;48.900;9.188;2022-12-18T02:34:38;-8.90;1.00
38239;DHT22;24035;48.900;9.188;2022-12-18T02:37:09;-8.90;1.00
38239;DHT22;24035;48.900;9.188;2022-12-18T02:39:38;-8.80;1.00
38239;DHT22;24035;48.900;9.188;2022-12-18T02:42:04;-8.90;1.00
38239;DHT22;24035;48.900;9.188;2022-12-18T02:44:34;-8.90;1.00
38239;DHT22;24035;48.900;9.188;2022-12-18T02:47:01;-9.00;1.00
38239;DHT22;24035;48.900;9.188;2022-12-18T02:52:30;-9.10;1.00
38239;DHT22;24035;48.900;9.188;2022-12-18T02:58:05;-9.10;1.00
38239;DHT22;24035;48.900;9.188;2022-12-18T03:00:37;-9.10;99.90
38239;DHT22;24035;48.900;9.188;2022-12-18T03:08:10;-9.10;1.00
38239;DHT22;24035;48.900;9.188;2022-12-18T03:10:42;-9.00;1.00
38239;DHT22;24035;48.900;9.188;2022-12-18T03:13:17;-8.90;1.00
38239;DHT22;24035;48.900;9.188;2022-12-18T03:15:47;-8.80;1.00
38239;DHT22;24035;48.900;9.188;2022-12-18T03:18:31;-8.80;1.00
38239;DHT22;24035;48.900;9.188;2022-12-18T03:21:01;-8.90;1.00
38239;DHT22;24035;48.900;9.188;2022-12-18T03:23:33;-8.80;1.00
38239;DHT22;24035;48.900;9.188;2022-12-18T03:26:06;-8.60;1.00
38239;DHT22;24035;48.900;9.188;2022-12-18T03:28:36;-8.50;1.00
38239;DHT22;24035;48.900;9.188;2022-12-18T03:31:05;-8.50;1.00
38239;DHT22;24035;48.900;9.188;2022-12-18T03:36:18;-8.40;1.00
38239;DHT22;24035;48.900;9.188;2022-12-18T03:38:43;-8.30;1.00
38239;DHT22;24035;48.900;9.188;2022-12-18T03:41:19;-8.20;1.00
38239;DHT22;24035;48.900;9.188;2022-12-18T03:47:03;-8.10;1.00
38239;DHT22;24035;48.900;9.188;2022-12-18T03:52:11;-8.00;1.00
38239;DHT22;24035;48.900;9.188;2022-12-18T03:54:39;-8.00;99.90
38239;DHT22;24035;48.900;9.188;2022-12-18T03:57:11;-8.00;99.90
38239;DHT22;24035;48.900;9.188;2022-12-18T03:59:39;-8.00;99.90
38239;DHT22;24035;48.900;9.188;2022-12-18T04:02:06;-8.10;99.90
38239;DHT22;24035;48.900;9.188;2022-12-18T04:04:34;-8.10;99.90
38239;DHT22;24035;48.900;9.188;2022-12-18T04:07:01;-8.10;99.90
38239;DHT22;24035;48.900;9.188;2022-12-18T04:09:28;-8.10;99.90
38239;DHT22;24035;48.900;9.188;2022-12-18T04:11:55;-8.10;99.90
38239;DHT22;24035;48.900;9.188;2022-12-18T04:14:21;-8.10;99.90
38239;DHT22;24035;48.900;9.188;2022-12-18T04:16:46;-8.10;99.90
38239;DHT22;24035;48.900;9.188;2022-12-18T04:19:12;-8.10;99.90
38239;DHT22;24035;48.900;9.188;2022-12-18T04:21:38;-8.10;99.90
38239;DHT22;24035;48.900;9.188;2022-12-18T04:24:04;-8.10;99.90
38239;DHT22;24035;48.900;9.188;2022-12-18T04:26:30;-8.10;99.90
38239;DHT22;24035;48.900;9.188;2022-12-18T04:28:55;-8.10;99.90
38239;DHT22;24035;48.900;9.188;2022-12-18T04:31:21;-8.20;77.50
38239;DHT22;24035;48.900;9.188;2022-12-18T04:33:47;-8.20;44.10
38239;DHT22;24035;48.900;9.188;2022-12-18T04:36:12;-8.20;58.50
38239;DHT22;24035;48.900;9.188;2022-12-18T04:38:38;-8.30;9.70
38239;DHT22;24035;48.900;9.188;2022-12-18T04:41:04;-8.30;73.70
38239;DHT22;24035;48.900;9.188;2022-12-18T04:43:29;-8.20;99.90
38239;DHT22;24035;48.900;9.188;2022-12-18T04:46:02;-8.20;99.90
38239;DHT22;24035;48.900;9.188;2022-12-18T04:48:28;-8.30;38.90
38239;DHT22;24035;48.900;9.188;2022-12-18T04:50:53;-8.40;28.50
38239;DHT22;24035;48.900;9.188;2022-12-18T04:53:19;-8.30;99.90
38239;DHT22;24035;48.900;9.188;2022-12-18T04:55:45;-8.30;99.90
38239;DHT22;24035;48.900;9.188;2022-12-18T04:58:10;-8.40;1.00
38239;DHT22;24035;48.900;9.188;2022-12-18T05:00:36;-8.50;1.00
38239;DHT22;24035;48.900;9.188;2022-12-18T05:03:02;-8.50;1.00
38239;DHT22;24035;48.900;9.188;2022-12-18T05:05:28;-8.60;1.00
38239;DHT22;24035;48.900;9.188;2022-12-18T05:07:53;-8.60;1.00
38239;DHT22;24035;48.900;9.188;2022-12-18T05:10:19;-8.80;1.00
38239;DHT22;24035;48.900;9.188;2022-12-18T05:12:44;-8.90;1.00
38239;DHT22;24035;48.900;9.188;2022-12-18T05:15:30;-9.10;1.00
38239;DHT22;24035;48.900;9.188;2022-12-18T05:17:57;-9.00;1.00
38239;DHT22;24035;48.900;9.188;2022-12-18T05:20:23;-9.10;1.00
38239;DHT22;24035;48.900;9.188;2022-12-18T05:22:50;-9.30;1.00
38239;DHT22;24035;48.900;9.188;2022-12-18T05:25:16;-9.30;1.00
38239;DHT22;24035;48.900;9.188;2022-12-18T05:27:42;-9.40;99.90
38239;DHT22;24035;48.900;9.188;2022-12-18T05:30:08;-9.50;99.90
38239;DHT22;24035;48.900;9.188;2022-12-18T05:32:34;-9.60;99.90
38239;DHT22;24035;48.900;9.188;2022-12-18T05:35:00;-9.80;99.90
38239;DHT22;24035;48.900;9.188;2022-12-18T05:37:26;-9.90;99.90
38239;DHT22;24035;48.900;9.188;2022-12-18T05:39:52;-9.90;99.90
38239;DHT22;24035;48.900;9.188;2022-12-18T05:42:17;-9.90;99.90
38239;DHT22;24035;48.900;9.188;2022-12-18T05:44:43;-9.80;1.00
38239;DHT22;24035;48.900;9.188;2022-12-18T05:47:09;-9.70;1.00
38239;DHT22;24035;48.900;9.188;2022-12-18T05:49:35;-9.60;1.00
38239;DHT22;24035;48.900;9.188;2022-12-18T05:52:00;-9.40;1.00
38239;DHT22;24035;48.900;9.188;2022-12-18T05:54:29;-9.40;1.00
38239;DHT22;24035;48.900;9.188;2022-12-18T05:56:55;-9.30;49.80
38239;DHT22;24035;48.900;9.188;2022-12-18T05:59:21;-9.40;21.30
38239;DHT22;24035;48.900;9.188;2022-12-18T06:01:46;-9.50;1.00
38239;DHT22;24035;48.900;9.188;2022-12-18T06:04:12;-9.60;1.00
38239;DHT22;24035;48.900;9.188;2022-12-18T06:06:38;-9.60;1.00
38239;DHT22;24035;48.900;9.188;2022-12-18T06:09:04;-9.70;1.00
38239;DHT22;24035;48.900;9.188;2022-12-18T06:11:36;-9.70;1.00
38239;DHT22;24035;48.900;9.188;2022-12-18T06:14:03;-9.70;1.00
38239;DHT22;24035;48.900;9.188;2022-12-18T06:16:30;-9.60;50.00
38239;DHT22;24035;48.900;9.188;2022-12-18T06:18:57;-9.60;99.90
38239;DHT22;24035;48.900;9.188;2022-12-18T06:21:23;-9.50;99.90
38239;DHT22;24035;48.900;9.188;2022-12-18T06:23:48;-9.60;80.80
38239;DHT22;24035;48.900;9.188;2022-12-18T06:26:14;-9.60;99.90
38239;DHT22;24035;48.900;9.188;2022-12-18T06:28:40;-9.50;99.90
38239;DHT22;24035;48.900;9.188;2022-12-18T06:31:06;-9.60;99.90
38239;DHT22;24035;48.900;9.188;2022-12-18T06:33:33;-9.70;29.00
38239;DHT22;24035;48.900;9.188;2022-12-18T06:36:04;-9.60;99.90
38239;DHT22;24035;48.900;9.188;2022-12-18T06:38:32;-9.70;1.00
38239;DHT22;24035;48.900;9.188;2022-12-18T06:40:58;-9.80;1.00
38239;DHT22;24035;48.900;9.188;2022-12-18T06:43:24;-9.80;43.50
38239;DHT22;24035;48.900;9.188;2022-12-18T06:45:49;-9.60;99.90
38239;DHT22;24035;48.900;9.188;2022-12-18T06:48:21;-9.60;99.90
38239;DHT22;24035;48.900;9.188;2022-12-18T06:50:47;-9.60;94.90
38239;DHT22;24035;48.900;9.188;2022-12-18T06:53:13;-9.50;99.90
38239;DHT22;24035;48.900;9.188;2022-12-18T06:55:39;-9.40;99.90
38239;DHT22;24035;48.900;9.188;2022-12-18T06:58:04;-9.50;25.10
38239;DHT22;24035;48.900;9.188;2022-12-18T07:00:30;-9.50;7.60
38239;DHT22;24035;48.900;9.188;2022-12-18T07:02:56;-9.40;99.90
38239;DHT22;24035;48.900;9.188;2022-12-18T07:05:22;-9.20;99.90
38239;DHT22;24035;48.900;9.188;2022-12-18T07:07:49;-9.30;1.00
38239;DHT22;24035;48.900;9.188;2022-12-18T07:10:15;-9.30;1.00
38239;DHT22;24035;48.900;9.188;2022-12-18T07:12:41;-9.40;1.00
38239;DHT22;24035;48.900;9.188;2022-12-18T07:15:07;-9.40;1.00
38239;DHT22;24035;48.900;9.188;2022-12-18T07:17:33;-8.90;1.00
38239;DHT22;24035;48.900;9.188;2022-12-18T07:19:59;-9.00;92.90
38239;DHT22;24035;48.900;9.188;2022-12-18T07:22:25;-9.10;1.00
38239;DHT22;24035;48.900;9.188;2022-12-18T07:24:51;-9.10;1.00
38239;DHT22;24035;48.900;9.188;2022-12-18T07:27:17;-9.30;1.00
38239;DHT22;24035;48.900;9.188;2022-12-18T07:29:42;-9.30;1.00
38239;DHT22;24035;48.900;9.188;2022-12-18T07:32:08;-9.30;1.00
38239;DHT22;24035;48.900;9.188;2022-12-18T07:34:34;-9.40;1.00
38239;DHT22;24035;48.900;9.188;2022-12-18T07:37:00;-9.40;1.00
38239;DHT22;24035;48.900;9.188;2022-12-18T07:39:25;-9.40;1.00
38239;DHT22;24035;48.900;9.188;2022-12-18T07:41:51;-9.30;1.00
38239;DHT22;24035;48.900;9.188;2022-12-18T07:44:35;-9.20;1.00
38239;DHT22;24035;48.900;9.188;2022-12-18T07:47:01;-9.30;1.00
38239;DHT22;24035;48.900;9.188;2022-12-18T07:49:28;-9.30;1.00
38239;DHT22;24035;48.900;9.188;2022-12-18T07:51:57;-9.20;1.00
38239;DHT22;24035;48.900;9.188;2022-12-18T07:54:24;-9.30;1.00
38239;DHT22;24035;48.900;9.188;2022-12-18T07:56:50;-9.50;99.90
38239;DHT22;24035;48.900;9.188;2022-12-18T07:59:16;-9.50;99.90
38239;DHT22;24035;48.900;9.188;2022-12-18T08:01:42;-9.50;1.00
38239;DHT22;24035;48.900;9.188;2022-12-18T08:04:07;-9.60;1.00
38239;DHT22;24035;48.900;9.188;2022-12-18T08:06:33;-9.60;1.00
38239;DHT22;24035;48.900;9.188;2022-12-18T08:08:59;-9.70;1.00
38239;DHT22;24035;48.900;9.188;2022-12-18T08:11:26;-9.70;1.00
38239;DHT22;24035;48.900;9.188;2022-12-18T08:13:53;-9.80;1.00
38239;DHT22;24035;48.900;9.188;2022-12-18T08:16:20;-9.80;1.00
38239;DHT22;24035;48.900;9.188;2022-12-18T08:18:46;-9.80;1.00
38239;DHT22;24035;48.900;9.188;2022-12-18T08:21:15;-9.80;1.00
38239;DHT22;24035;48.900;9.188;2022-12-18T08:23:42;-9.70;1.00
38239;DHT22;24035;48.900;9.188;2022-12-18T08:26:09;-9.70;1.00
38239;DHT22;24035;48.900;9.188;2022-12-18T08:28:35;-9.70;1.00
38239;DHT22;24035;48.900;9.188;2022-12-18T08:31:01;-9.60;2.90
38239;DHT22;24035;48.900;9.188;2022-12-18T08:33:27;-9.60;99.90
38239;DHT22;24035;48.900;9.188;2022-12-18T08:35:53;-9.50;99.90
38239;DHT22;24035;48.900;9.188;2022-12-18T08:38:19;-9.50;99.90
38239;DHT22;24035;48.900;9.188;2022-12-18T08:40:45;-9.40;99.90
38239;DHT22;24035;48.900;9.188;2022-12-18T08:43:11;-9.20;1.00
38239;DHT22;24035;48.900;9.188;2022-12-18T08:45:56;-9.20;99.90
38239;DHT22;24035;48.900;9.188;2022-12-18T08:48:22;-9.10;1.00
38239;DHT22;24035;48.900;9.188;2022-12-18T08:50:58;-9.00;1.00
38239;DHT22;24035;48.900;9.188;2022-12-18T08:53:24;-9.00;99.90
38239;DHT22;24035;48.900;9.188;2022-12-18T08:55:51;-8.90;99.90
38239;DHT22;24035;48.900;9.188;2022-12-18T08:58:17;-8.90;99.90
38239;DHT22;24035;48.900;9.188;2022-12-18T09:00:43;-8.80;1.00
38239;DHT22;24035;48.900;9.188;2022-12-18T09:03:17;-8.60;1.00
38239;DHT22;24035;48.900;9.188;2022-12-18T09:05:45;-8.50;1.00
38239;DHT22;24035;48.900;9.188;2022-12-18T09:08:11;-8.50;1.00
38239;DHT22;24035;48.900;9.188;2022-12-18T09:10:42;-8.50;1.00
38239;DHT22;24035;48.900;9.188;2022-12-18T09:13:10;-8.40;1.00
38239;DHT22;24035;48.900;9.188;2022-12-18T09:15:41;-8.30;1.00
38239;DHT22;24035;48.900;9.188;2022-12-18T09:18:09;-8.20;1.00
38239;DHT22;24035;48.900;9.188;2022-12-18T09:20:35;-8.00;1.00
38239;DHT22;24035;48.900;9.188;2022-12-18T09:23:02;-7.90;1.00
38239;DHT22;24035;48.900;9.188;2022-12-18T09:25:29;-7.80;1.00
38239;DHT22;24035;48.900;9.188;2022-12-18T09:28:03;-7.60;1.00
38239;DHT22;24035;48.900;9.188;2022-12-18T09:30:29;-7.40;1.00
38239;DHT22;24035;48.900;9.188;2022-12-18T09:32:55;-7.30;1.00
38239;DHT22;24035;48.900;9.188;2022-12-18T09:35:21;-7.20;1.00
38239;DHT22;24035;48.900;9.188;2022-12-18T09:37:47;-7.10;1.00
38239;DHT22;24035;48.900;9.188;2022-12-18T09:40:19;-7.00;1.00
38239;DHT22;24035;48.900;9.188;2022-12-18T09:42:57;-6.90;1.00
38239;DHT22;24035;48.900;9.188;2022-12-18T09:45:25;-6.90;1.00
38239;DHT22;24035;48.900;9.188;2022-12-18T09:47:52;-6.90;1.00
38239;DHT22;24035;48.900;9.188;2022-12-18T09:52:52;-6.70;1.00
38239;DHT22;24035;48.900;9.188;2022-12-18T09:55:30;-6.50;1.00
38239;DHT22;24035;48.900;9.188;2022-12-18T10:00:34;-6.30;1.00
38239;DHT22;24035;48.900;9.188;2022-12-18T10:03:09;-6.20;1.00
38239;DHT22;24035;48.900;9.188;2022-12-18T10:05:37;-6.20;1.00
38239;DHT22;24035;48.900;9.188;2022-12-18T10:08:33;-6.10;1.00
38239;DHT22;24035;48.900;9.188;2022-12-18T10:11:27;-5.80;1.00
38239;DHT22;24035;48.900;9.188;2022-12-18T10:14:08;-5.70;1.00
38239;DHT22;24035;48.900;9.188;2022-12-18T10:17:28;-5.60;1.00
38239;DHT22;24035;48.900;9.188;2022-12-18T10:20:07;-5.50;1.00
38239;DHT22;24035;48.900;9.188;2022-12-18T10:25:15;-5.30;1.00
38239;DHT22;24035;48.900;9.188;2022-12-18T10:27:44;-5.20;1.00
38239;DHT22;24035;48.900;9.188;2022-12-18T10:30:19;-5.00;1.00
38239;DHT22;24035;48.900;9.188;2022-12-18T10:32:45;-4.90;1.00
38239;DHT22;24035;48.900;9.188;2022-12-18T10:35:22;-4.90;99.90
38239;DHT22;24035;48.900;9.188;2022-12-18T10:40:30;-4.90;99.90
38239;DHT22;24035;48.900;9.188;2022-12-18T10:43:13;-4.80;99.90
38239;DHT22;24035;48.900;9.188;2022-12-18T10:45:40;-4.80;99.90
38239;DHT22;24035;48.900;9.188;2022-12-18T10:48:19;-4.70;99.90
38239;DHT22;24035;48.900;9.188;2022-12-18T10:50:48;-4.70;99.90
38239;DHT22;24035;48.900;9.188;2022-12-18T10:53:21;-4.60;99.90
38239;DHT22;24035;48.900;9.188;2022-12-18T10:55:48;-4.60;99.90
38239;DHT22;24035;48.900;9.188;2022-12-18T10:58:26;-4.40;99.90
38239;DHT22;24035;48.900;9.188;2022-12-18T11:03:40;-4.20;71.00
38239;DHT22;24035;48.900;9.188;2022-12-18T11:08:37;-4.10;1.00
38239;DHT22;24035;48.900;9.188;2022-12-18T11:11:06;-4.10;1.00
38239;DHT22;24035;48.900;9.188;2022-12-18T11:13:33;-3.90;99.90
38239;DHT22;24035;48.900;9.188;2022-12-18T11:15:59;-4.00;1.00
38239;DHT22;24035;48.900;9.188;2022-12-18T11:18:31;-3.90;27.60
38239;DHT22;24035;48.900;9.188;2022-12-18T11:21:09;-3.80;99.90
38239;DHT22;24035;48.900;9.188;2022-12-18T11:23:36;-3.60;1.00
38239;DHT22;24035;48.900;9.188;2022-12-18T11:26:04;-3.50;99.90
38239;DHT22;24035;48.900;9.188;2022-12-18T11:28:43;-3.50;99.90
38239;DHT22;24035;48.900;9.188;2022-12-18T11:31:12;-3.40;1.00
38239;DHT22;24035;48.900;9.188;2022-12-18T11:33:52;-3.30;1.00
38239;DHT22;24035;48.900;9.188;2022-12-18T11:36:20;-3.30;1.00
38239;DHT22;24035;48.900;9.188;2022-12-18T11:38:47;-3.20;99.40
38239;DHT22;24035;48.900;9.188;2022-12-18T11:41:32;-3.10;99.90
38239;DHT22;24035;48.900;9.188;2022-12-18T11:44:35;-3.10;1.00
38239;DHT22;24035;48.900;9.188;2022-12-18T11:50:01;-3.10;99.90
38239;DHT22;24035;48.900;9.188;2022-12-18T11:52:35;-3.00;1.00
38239;DHT22;24035;48.900;9.188;2022-12-18T11:55:11;-2.80;1.00
38239;DHT22;24035;48.900;9.188;2022-12-18T12:00:20;-2.80;1.00
38239;DHT22;24035;48.900;9.188;2022-12-18T12:05:44;-2.90;99.90
38239;DHT22;24035;48.900;9.188;2022-12-18T12:19:39;-2.60;99.90
38239;DHT22;24035;48.900;9.188;2022-12-18T12:22:23;-2.60;99.90
38239;DHT22;24035;48.900;9.188;2022-12-18T12:27:43;-2.50;1.00
38239;DHT22;24035;48.900;9.188;2022-12-18T12:30:39;-2.50;1.00
38239;DHT22;24035;48.900;9.188;2022-12-18T12:33:47;-2.40;1.00
38239;DHT22;24035;48.900;9.188;2022-12-18T12:36:22;-2.20;1.00
38239;DHT22;24035;48.900;9.188;2022-12-18T12:39:01;-2.20;1.00
38239;DHT22;24035;48.900;9.188;2022-12-18T12:41:32;-2.00;1.00
38239;DHT22;24035;48.900;9.188;2022-12-18T12:44:51;-2.00;1.00
38239;DHT22;24035;48.900;9.188;2022-12-18T12:47:23;-2.00;99.90
38239;DHT22;24035;48.900;9.188;2022-12-18T12:49:51;-2.00;1.00
38239;DHT22;24035;48.900;9.188;2022-12-18T12:55:14;-1.60;1.00
38239;DHT22;24035;48.900;9.188;2022-12-18T12:57:47;-1.70;69.60
38239;DHT22;24035;48.900;9.188;2022-12-18T13:00:17;-1.70;1.00
38239;DHT22;24035;48.900;9.188;2022-12-18T13:03:03;-1.80;1.00
38239;DHT22;24035;48.900;9.188;2022-12-18T13:05:54;-1.60;99.90
38239;DHT22;24035;48.900;9.188;2022-12-18T13:08:27;-1.60;99.90
38239;DHT22;24035;48.900;9.188;2022-12-18T13:10:58;-1.60;99.90
38239;DHT22;24035;48.900;9.188;2022-12-18T13:13:54;-1.60;1.00
38239;DHT22;24035;48.900;9.188;2022-12-18T13:16:22;-1.60;1.00
38239;DHT22;24035;48.900;9.188;2022-12-18T13:18:53;-1.50;15.80
38239;DHT22;24035;48.900;9.188;2022-12-18T13:21:30;-1.50;1.00
38239;DHT22;24035;48.900;9.188;2022-12-18T13:24:15;-1.50;1.00
38239;DHT22;24035;48.900;9.188;2022-12-18T13:26:45;-1.40;1.00
38239;DHT22;24035;48.900;9.188;2022-12-18T13:29:11;-1.20;1.00
38239;DHT22;24035;48.900;9.188;2022-12-18T13:34:28;-1.10;99.90
38239;DHT22;24035;48.900;9.188;2022-12-18T13:39:58;-1.10;99.90
38239;DHT22;24035;48.900;9.188;2022-12-18T13:45:37;-1.20;1.00
38239;DHT22;24035;48.900;9.188;2022-12-18T13:48:04;-1.20;99.90
38239;DHT22;24035;48.900;9.188;2022-12-18T13:50:30;-1.20;1.00
38239;DHT22;24035;48.900;9.188;2022-12-18T13:52:57;-1.10;99.90
38239;DHT22;24035;48.900;9.188;2022-12-18T13:55:23;-1.10;99.90
38239;DHT22;24035;48.900;9.188;2022-12-18T13:57:49;-1.10;99.90
38239;DHT22;24035;48.900;9.188;2022-12-18T14:00:29;-1.20;99.90
38239;DHT22;24035;48.900;9.188;2022-12-18T14:02:56;-1.30;99.90
38239;DHT22;24035;48.900;9.188;2022-12-18T14:05:23;-1.30;99.90
38239;DHT22;24035;48.900;9.188;2022-12-18T14:07:49;-1.30;99.90
38239;DHT22;24035;48.900;9.188;2022-12-18T14:10:15;-1.50;99.90
38239;DHT22;24035;48.900;9.188;2022-12-18T14:12:45;-1.50;99.90
38239;DHT22;24035;48.900;9.188;2022-12-18T14:17:53;-1.70;99.90
38239;DHT22;24035;48.900;9.188;2022-12-18T14:20:19;-1.70;99.90
38239;DHT22;24035;48.900;9.188;2022-12-18T14:22:48;-1.70;99.90
38239;DHT22;24035;48.900;9.188;2022-12-18T14:27:51;-1.80;99.90
38239;DHT22;24035;48.900;9.188;2022-12-18T14:33:02;-1.90;99.90
38239;DHT22;24035;48.900;9.188;2022-12-18T14:35:29;-2.00;99.90
38239;DHT22;24035;48.900;9.188;2022-12-18T14:40:41;-2.10;99.90
38239;DHT22;24035;48.900;9.188;2022-12-18T14:43:12;-2.20;99.90
38239;DHT22;24035;48.900;9.188;2022-12-18T14:45:40;-2.30;99.90
38239;DHT22;24035;48.900;9.188;2022-12-18T14:50:39;-2.40;99.90
38239;DHT22;24035;48.900;9.188;2022-12-18T14:53:16;-2.40;1.00
38239;DHT22;24035;48.900;9.188;2022-12-18T14:55:46;-2.50;1.00
38239;DHT22;24035;48.900;9.188;2022-12-18T14:58:15;-2.70;1.00
38239;DHT22;24035;48.900;9.188;2022-12-18T15:00:42;-2.80;1.00
38239;DHT22;24035;48.900;9.188;2022-12-18T15:03:08;-2.80;1.00
38239;DHT22;24035;48.900;9.188;2022-12-18T15:05:35;-2.90;1.00
38239;DHT22;24035;48.900;9.188;2022-12-18T15:08:02;-2.90;1.00
38239;DHT22;24035;48.900;9.188;2022-12-18T15:10:32;-2.90;1.00
38239;DHT22;24035;48.900;9.188;2022-12-18T15:20:31;-3.00;1.00
38239;DHT22;24035;48.900;9.188;2022-12-18T15:22:58;-3.00;46.30
38239;DHT22;24035;48.900;9.188;2022-12-18T15:25:35;-3.10;99.90
38239;DHT22;24035;48.900;9.188;2022-12-18T15:28:03;-3.10;99.90
38239;DHT22;24035;48.900;9.188;2022-12-18T15:30:29;-3.10;99.90
38239;DHT22;24035;48.900;9.188;2022-12-18T15:33:33;-3.10;99.90
38239;DHT22;24035;48.900;9.188;2022-12-18T15:36:09;-3.00;99.90
38239;DHT22;24035;48.900;9.188;2022-12-18T15:38:35;-3.10;99.90
38239;DHT22;24035;48.900;9.188;2022-12-18T15:41:02;-3.20;99.90
38239;DHT22;24035;48.900;9.188;2022-12-18T15:43:28;-3.20;99.90
38239;DHT22;24035;48.900;9.188;2022-12-18T15:46:10;-3.20;99.90
38239;DHT22;24035;48.900;9.188;2022-12-18T15:48:46;-3.20;99.90
38239;DHT22;24035;48.900;9.188;2022-12-18T15:51:31;-3.30;99.90
38239;DHT22;24035;48.900;9.188;2022-12-18T15:54:00;-3.40;99.90
38239;DHT22;24035;48.900;9.188;2022-12-18T15:56:26;-3.40;1.00
38239;DHT22;24035;48.900;9.188;2022-12-18T15:59:18;-3.40;1.00
38239;DHT22;24035;48.900;9.188;2022-12-18T16:01:47;-3.40;1.00
38239;DHT22;24035;48.900;9.188;2022-12-18T16:04:15;-3.50;1.00
38239;DHT22;24035;48.900;9.188;2022-12-18T16:06:41;-3.60;1.00
38239;DHT22;24035;48.900;9.188;2022-12-18T16:09:07;-3.60;1.00
38239;DHT22;24035;48.900;9.188;2022-12-18T16:11:35;-3.70;1.00
38239;DHT22;24035;48.900;9.188;2022-12-18T16:14:22;-3.60;10.30
38239;DHT22;24035;48.900;9.188;2022-12-18T16:16:51;-3.70;91.20
38239;DHT22;24035;48.900;9.188;2022-12-18T16:19:18;-3.60;99.90
38239;DHT22;24035;48.900;9.188;2022-12-18T16:21:44;-3.60;99.90
38239;DHT22;24035;48.900;9.188;2022-12-18T16:24:37;-3.50;99.90
38239;DHT22;24035;48.900;9.188;2022-12-18T16:27:03;-3.50;94.30
38239;DHT22;24035;48.900;9.188;2022-12-18T16:29:29;-3.50;1.00
38239;DHT22;24035;48.900;9.188;2022-12-18T16:31:59;-3.40;99.90
38239;DHT22;24035;48.900;9.188;2022-12-18T16:34:30;-3.40;1.00
38239;DHT22;24035;48.900;9.188;2022-12-18T16:36:57;-3.30;1.00
38239;DHT22;24035;48.900;9.188;2022-12-18T16:39:24;-3.50;1.00
38239;DHT22;24035;48.900;9.188;2022-12-18T16:41:50;-3.50;1.00
38239;DHT22;24035;48.900;9.188;2022-12-18T16:44:16;-3.50;1.00
38239;DHT22;24035;48.900;9.188;2022-12-18T16:46:43;-3.50;1.00
38239;DHT22;24035;48.900;9.188;2022-12-18T16:49:12;-3.50;1.00
38239;DHT22;24035;48.900;9.188;2022-12-18T16:51:38;-3.50;1.00
38239;DHT22;24035;48.900;9.188;2022-12-18T16:54:03;-3.40;63.50
38239;DHT22;24035;48.900;9.188;2022-12-18T16:56:29;-3.40;1.00
38239;DHT22;24035;48.900;9.188;2022-12-18T16:58:58;-3.40;1.00
38239;DHT22;24035;48.900;9.188;2022-12-18T17:01:24;-3.50;1.00
38239;DHT22;24035;48.900;9.188;2022-12-18T17:04:00;-3.50;1.00
38239;DHT22;24035;48.900;9.188;2022-12-18T17:06:28;-3.40;1.00
38239;DHT22;24035;48.900;9.188;2022-12-18T17:08:55;-3.40;1.00
38239;DHT22;24035;48.900;9.188;2022-12-18T17:11:23;-3.40;1.00
38239;DHT22;24035;48.900;9.188;2022-12-18T17:13:49;-3.40;1.00
38239;DHT22;24035;48.900;9.188;2022-12-18T17:16:14;-3.30;79.30
38239;DHT22;24035;48.900;9.188;2022-12-18T17:18:42;-3.20;95.10
38239;DHT22;24035;48.900;9.188;2022-12-18T17:21:09;-3.20;99.90
38239;DHT22;24035;48.900;9.188;2022-12-18T17:23:35;-3.20;1.00
38239;DHT22;24035;48.900;9.188;2022-12-18T17:26:03;-3.20;1.00
38239;DHT22;24035;48.900;9.188;2022-12-18T17:28:32;-3.30;1.00
38239;DHT22;24035;48.900;9.188;2022-12-18T17:30:58;-3.20;1.00
38239;DHT22;24035;48.900;9.188;2022-12-18T17:33:24;-3.20;1.00
38239;DHT22;24035;48.900;9.188;2022-12-18T17:35:49;-3.20;99.90
38239;DHT22;24035;48.900;9.188;2022-12-18T17:38:16;-3.20;99.90
38239;DHT22;24035;48.900;9.188;2022-12-18T17:40:42;-3.20;99.90